Time;durP1;ratioP1;P1;durP2;ratioP2;P2;SDS_P1;SDS_P2;PMS_P1;PMS_P2;Temp;Humidity;BMP_temperature;BMP_pressure;BME280_temperature;BME280_humidity;BME280_pressure;Samples;Min_cycle;Max_cycle;Signal;HPM_P1;HPM_P2
2022/04/17 00:00:31;;;;;;;49.03;25.95;;;;;;;4.45;43.56;103279.75;5062874;28;20029;-77
2022/04/17 00:02:57;;;;;;;42.33;25.40;;;;;;;4.43;43.62;103272.84;5048691;28;20063;-78
2022/04/17 00:05:22;;;;;;;48.13;26.40;;;;;;;4.45;43.70;103280.63;5077586;28;20092;-77
2022/04/17 00:07:48;;;;;;;41.80;23.27;;;;;;;4.32;44.02;103284.66;5059363;28;20486;-77
2022/04/17 00:10:14;;;;;;;47.65;27.10;;;;;;;4.31;44.01;103288.06;5076377;28;20029;-76
2022/04/17 00:12:40;;;;;;;46.60;26.40;;;;;;;4.38;43.98;103277.00;5059013;28;20045;-79
2022/04/17 00:15:07;;;;;;;47.97;26.38;;;;;;;4.30;44.21;103273.38;5068160;28;20039;-76
2022/04/17 00:17:33;;;;;;;54.20;28.42;;;;;;;4.33;44.13;103280.34;5061016;28;20044;-76
2022/04/17 00:19:59;;;;;;;50.35;26.67;;;;;;;4.41;43.84;103269.34;5044640;28;20175;-75
2022/04/17 00:22:25;;;;;;;55.42;28.52;;;;;;;4.31;44.17;103267.34;5076412;28;20041;-75
2022/04/17 00:24:52;;;;;;;43.15;26.33;;;;;;;4.18;44.45;103257.53;5044837;28;20036;-74
2022/04/17 00:27:18;;;;;;;45.10;28.17;;;;;;;4.33;44.21;103260.50;5080259;28;20087;-76
2022/04/17 00:29:44;;;;;;;50.88;29.02;;;;;;;4.32;43.94;103269.13;5080464;28;20064;-77
2022/04/17 00:32:12;;;;;;;45.78;26.98;;;;;;;4.22;44.43;103267.13;5079037;28;20037;-75
2022/04/17 00:34:38;;;;;;;56.10;29.40;;;;;;;4.20;44.34;103268.78;5066408;28;20040;-77
2022/04/17 00:37:05;;;;;;;52.30;28.98;;;;;;;4.18;44.31;103260.97;5081111;28;20036;-75
2022/04/17 00:39:30;;;;;;;48.67;29.52;;;;;;;4.11;44.54;103268.56;5064822;28;20029;-75
2022/04/17 00:41:56;;;;;;;55.97;28.55;;;;;;;3.96;44.76;103272.53;5063140;28;20040;-77
2022/04/17 00:44:22;;;;;;;52.78;29.27;;;;;;;3.96;44.90;103263.84;5080509;28;20036;-74
2022/04/17 00:46:48;;;;;;;46.85;27.35;;;;;;;3.98;45.01;103268.28;5079030;28;20040;-76
2022/04/17 00:49:14;;;;;;;49.22;27.60;;;;;;;3.97;45.05;103269.09;5063396;28;20033;-74
2022/04/17 00:51:46;;;;;;;52.65;28.90;;;;;;;3.89;45.12;103262.81;5060582;28;20048;-76
2022/04/17 00:54:14;;;;;;;48.15;27.73;;;;;;;3.94;45.11;103260.34;5077197;28;20049;-76
2022/04/17 00:56:41;;;;;;;51.80;28.95;;;;;;;3.77;45.80;103255.63;5078150;28;20041;-76
2022/04/17 00:59:09;;;;;;;51.00;27.90;;;;;;;3.82;45.34;103249.69;5078961;28;20063;-77
2022/04/17 01:01:36;;;;;;;45.47;26.33;;;;;;;3.73;45.77;103255.50;5063068;28;20120;-78
2022/04/17 01:04:03;;;;;;;53.72;27.50;;;;;;;3.69;45.66;103248.50;5047892;28;20441;-75
2022/04/17 01:06:31;;;;;;;48.45;26.75;;;;;;;3.64;45.89;103255.25;5064789;28;20044;-77
2022/04/17 01:08:58;;;;;;;50.35;28.60;;;;;;;3.63;45.86;103254.38;5079944;28;20051;-75
2022/04/17 01:11:24;;;;;;;41.05;24.15;;;;;;;3.57;45.97;103246.47;5064748;28;20075;-75
2022/04/17 01:13:51;;;;;;;53.17;25.30;;;;;;;3.63;45.89;103248.31;5051300;28;20053;-77
2022/04/17 01:16:17;;;;;;;45.15;26.13;;;;;;;3.57;45.88;103244.75;5065326;28;20031;-77
2022/04/17 01:18:57;;;;;;;40.28;21.80;;;;;;;3.54;45.82;103244.66;5053812;28;20037;-76
2022/04/17 01:21:25;;;;;;;32.42;20.85;;;;;;;3.58;45.64;103245.59;5079281;28;20017;-76
2022/04/17 01:29:21;;;;;;;34.67;19.42;;;;;;;3.56;45.45;103247.28;5074241;28;20546;-77
2022/04/17 01:31:46;;;;;;;30.25;18.42;;;;;;;3.57;45.39;103244.75;5066176;28;20037;-75
2022/04/17 01:34:20;;;;;;;32.22;18.15;;;;;;;3.48;45.50;103238.44;5047587;28;20049;-76
2022/04/17 01:36:47;;;;;;;32.75;16.85;;;;;;;3.44;45.78;103237.47;5078755;28;20079;-77
2022/04/17 01:39:14;;;;;;;34.75;17.83;;;;;;;3.56;45.33;103232.66;5078789;28;20400;-77
2022/04/17 01:41:40;;;;;;;44.20;18.27;;;;;;;3.56;45.58;103236.94;5073471;28;20101;-74
2022/04/17 01:44:06;;;;;;;33.40;16.30;;;;;;;3.54;45.41;103238.63;5068647;28;20094;-77
2022/04/17 01:46:32;;;;;;;35.47;17.30;;;;;;;3.41;45.52;103233.94;5080509;28;20025;-75
2022/04/17 01:48:58;;;;;;;32.90;15.85;;;;;;;3.45;45.50;103239.25;5061642;28;20052;-76
2022/04/17 01:51:23;;;;;;;27.20;16.00;;;;;;;3.42;45.52;103238.28;5081467;28;20660;-76
2022/04/17 01:53:49;;;;;;;28.73;15.43;;;;;;;3.39;45.67;103228.72;5079178;28;20029;-77
2022/04/17 01:56:15;;;;;;;28.73;15.77;;;;;;;3.36;45.62;103228.66;5058842;28;20033;-78
2022/04/17 01:58:41;;;;;;;30.63;16.67;;;;;;;3.28;46.00;103224.94;5069442;28;20127;-76
2022/04/17 02:01:07;;;;;;;27.63;16.60;;;;;;;3.33;45.98;103225.97;5063789;28;20063;-76
2022/04/17 02:03:36;;;;;;;29.05;16.38;;;;;;;3.32;45.95;103221.66;5055467;28;20039;-76
2022/04/17 02:06:23;;;;;;;28.40;15.95;;;;;;;3.28;45.94;103219.75;5075675;28;20040;-74
2022/04/17 02:08:51;;;;;;;24.80;15.68;;;;;;;3.18;46.10;103214.34;5078720;28;20048;-76
2022/04/17 02:11:48;;;;;;;28.70;16.25;;;;;;;3.26;46.05;103218.84;5080810;28;20032;-75
2022/04/17 02:14:32;;;;;;;26.55;16.45;;;;;;;3.23;45.83;103222.22;5058443;28;20329;-78
2022/04/17 02:16:58;;;;;;;28.80;16.77;;;;;;;3.17;46.20;103222.91;5079337;28;20036;-75
2022/04/17 02:19:23;;;;;;;21.15;15.45;;;;;;;2.81;47.09;103224.44;5083396;28;20028;-75
2022/04/17 02:21:49;;;;;;;30.08;15.25;;;;;;;3.07;46.22;103210.56;5056200;28;20033;-77
2022/04/17 02:24:20;;;;;;;25.83;15.30;;;;;;;3.13;46.24;103222.78;5057170;28;20119;-76
2022/04/17 02:28:13;;;;;;;31.00;16.30;;;;;;;2.95;46.14;103216.25;5052722;28;20043;-76
2022/04/17 02:30:39;;;;;;;27.77;16.00;;;;;;;2.83;47.11;103217.59;5062496;28;20076;-77
2022/04/17 02:33:06;;;;;;;24.77;16.25;;;;;;;2.89;46.75;103217.75;5057742;28;20043;-76
2022/04/17 02:35:57;;;;;;;26.02;16.95;;;;;;;2.86;46.68;103217.69;5081297;28;20059;-77
2022/04/17 02:38:24;;;;;;;29.55;17.85;;;;;;;2.86;46.54;103225.44;5077988;28;20045;-78
2022/04/17 02:40:50;;;;;;;36.00;19.17;;;;;;;2.79;46.82;103219.22;5079077;28;20037;-76
2022/04/17 02:43:17;;;;;;;33.08;19.38;;;;;;;2.75;46.89;103223.41;5075175;28;20037;-78
2022/04/17 02:46:04;;;;;;;29.25;17.90;;;;;;;2.67;47.22;103217.13;5082576;28;20059;-76
2022/04/17 02:48:29;;;;;;;34.55;16.10;;;;;;;2.68;47.11;103221.47;5045116;28;20509;-76
2022/04/17 02:50:55;;;;;;;33.08;16.40;;;;;;;2.66;47.29;103228.28;5056544;28;20033;-77
2022/04/17 02:53:21;;;;;;;25.38;15.98;;;;;;;2.69;46.87;103215.47;5052970;28;20044;-76
2022/04/17 02:55:50;;;;;;;27.77;16.08;;;;;;;2.67;46.68;103211.97;5068969;28;20044;-79
2022/04/17 02:58:16;;;;;;;33.65;15.73;;;;;;;2.73;46.56;103212.16;5077933;28;20390;-75
2022/04/17 03:06:23;;;;;;;27.92;15.50;;;;;;;2.71;46.56;103193.16;5064262;28;20029;-79
2022/04/17 03:08:57;;;;;;;23.60;14.07;;;;;;;2.68;46.43;103198.22;5078752;28;20052;-76
2022/04/17 03:11:22;;;;;;;24.95;14.23;;;;;;;2.63;46.42;103198.94;5068898;28;20033;-76
2022/04/17 03:13:48;;;;;;;25.38;15.25;;;;;;;2.49;46.82;103191.63;5084221;28;20060;-76
2022/04/17 03:16:15;;;;;;;35.38;15.05;;;;;;;2.55;46.62;103184.09;5069100;28;20092;-75
2022/04/17 03:18:44;;;;;;;31.10;16.23;;;;;;;2.48;46.67;103191.56;5081705;28;20037;-79
2022/04/17 03:21:10;;;;;;;34.42;16.05;;;;;;;2.38;46.71;103184.38;5085404;28;20037;-78
2022/04/17 03:23:42;;;;;;;31.83;15.75;;;;;;;2.39;46.92;103192.16;5085450;28;20040;-77
2022/04/17 03:26:07;;;;;;;26.55;15.23;;;;;;;2.33;47.12;103190.28;5085946;28;20060;-78
2022/04/17 03:28:55;;;;;;;21.85;14.43;;;;;;;2.33;47.02;103194.53;5086857;28;20032;-77
2022/04/17 03:31:21;;;;;;;25.98;15.20;;;;;;;2.21;47.08;103187.31;5047607;28;20052;-77
2022/04/17 03:33:47;;;;;;;21.00;13.60;;;;;;;2.21;47.64;103186.44;5066973;28;20044;-77
2022/04/17 03:36:39;;;;;;;30.25;15.93;;;;;;;2.19;47.55;103183.78;5066084;28;20040;-78
2022/04/17 03:39:05;;;;;;;;;;;;;;;2.20;47.97;103180.41;5025847;28;20068;-77
2022/04/17 03:41:31;;;;;;;21.15;11.77;;;;;;;2.23;47.73;103185.66;5099356;28;19912;-77
2022/04/17 03:44:49;;;;;;;21.58;12.43;;;;;;;2.29;47.27;103191.00;5027127;28;20045;-76
2022/04/17 03:47:27;;;;;;;23.95;13.80;;;;;;;2.37;46.48;103198.97;5083084;28;20288;-78
2022/04/17 03:50:37;;;;;;;24.02;13.85;;;;;;;2.21;46.54;103200.19;5067479;28;20095;-77
2022/04/17 03:53:26;;;;;;;18.92;13.38;;;;;;;2.17;46.68;103208.66;5059095;28;20051;-74
2022/04/17 03:55:51;;;;;;;18.77;12.73;;;;;;;2.05;46.95;103210.84;5071278;28;20025;-77
2022/04/17 03:58:17;;;;;;;19.00;12.32;;;;;;;1.96;47.28;103211.44;5072432;28;20024;-78
2022/04/17 04:01:03;;;;;;;22.15;13.00;;;;;;;1.94;47.12;103208.78;5074431;28;20220;-78
2022/04/17 04:03:50;;;;;;;21.52;13.27;;;;;;;1.81;47.51;103209.19;5045979;28;20048;-75
2022/04/17 04:06:16;;;;;;;28.08;14.45;;;;;;;1.76;47.47;103203.00;5065563;28;20017;-74
2022/04/17 04:08:43;;;;;;;25.52;13.93;;;;;;;1.61;47.76;103202.50;5080813;28;20045;-75
2022/04/17 04:11:08;;;;;;;21.75;12.35;;;;;;;1.65;47.79;103200.06;5082738;28;20235;-77
2022/04/17 04:14:04;;;;;;;24.15;13.48;;;;;;;1.68;47.79;103188.97;5063692;28;20183;-75
2022/04/17 04:17:13;;;;;;;26.55;13.02;;;;;;;1.57;47.89;103191.19;5049371;28;20104;-76
2022/04/17 04:19:39;;;;;;;21.23;11.82;;;;;;;1.57;47.74;103190.31;5052573;28;20055;-77
2022/04/17 04:22:49;;;;;;;21.55;13.20;;;;;;;1.50;47.91;103194.38;5068409;28;20025;-75
2022/04/17 04:26:05;;;;;;;25.20;13.35;;;;;;;1.42;48.23;103191.53;5051374;28;20117;-75
2022/04/17 04:28:36;;;;;;;24.48;14.40;;;;;;;1.39;48.35;103193.97;5024379;28;20104;-76
2022/04/17 04:31:06;;;;;;;27.40;15.15;;;;;;;1.38;48.81;103193.94;5075589;28;20040;-75
2022/04/17 04:34:10;;;;;;;26.05;13.77;;;;;;;1.41;48.54;103189.78;5080790;28;20072;-75
2022/04/17 04:36:40;;;;;;;30.25;15.70;;;;;;;1.38;48.73;103193.94;5083583;28;20051;-77
2022/04/17 04:39:06;;;;;;;34.25;17.25;;;;;;;1.38;49.00;103196.50;5066260;28;20033;-76
2022/04/17 04:41:32;;;;;;;37.22;17.35;;;;;;;1.41;49.21;103189.78;5081082;28;20012;-74
2022/04/17 04:43:58;;;;;;;29.20;16.25;;;;;;;1.46;49.40;103188.25;5058327;28;20037;-74
2022/04/17 04:46:24;;;;;;;30.95;15.63;;;;;;;1.51;49.08;103197.00;5069849;28;20017;-75
2022/04/17 04:51:38;;;;;;;29.15;14.48;;;;;;;1.65;49.16;103186.31;5070672;28;20498;-75
2022/04/17 04:54:31;;;;;;;23.90;13.32;;;;;;;1.84;48.75;103185.22;5054589;28;20047;-77
2022/04/17 04:57:00;;;;;;;26.13;13.23;;;;;;;1.94;48.32;103188.16;5051099;28;20781;-75
2022/04/17 04:59:27;;;;;;;25.05;12.93;;;;;;;1.99;47.89;103184.84;5055301;28;20044;-77
2022/04/17 05:01:52;;;;;;;24.48;13.45;;;;;;;2.01;47.58;103183.22;5068040;28;20021;-77
2022/04/17 05:04:20;;;;;;;24.35;13.82;;;;;;;1.94;47.85;103177.84;5082300;28;20407;-76
2022/04/17 05:06:54;;;;;;;26.08;12.85;;;;;;;2.09;47.51;103179.19;5084927;28;20033;-74
2022/04/17 05:09:29;;;;;;;25.33;13.90;;;;;;;2.22;46.97;103168.44;5066089;28;20041;-75
2022/04/17 05:11:55;;;;;;;22.02;12.52;;;;;;;2.28;46.58;103176.34;5065904;28;20037;-75
2022/04/17 05:14:45;;;;;;;25.23;12.82;;;;;;;2.37;46.34;103172.31;5074019;28;20525;-76
2022/04/17 05:18:15;;;;;;;26.15;12.57;;;;;;;2.37;46.36;103177.47;5048933;28;20186;-76
2022/04/17 05:20:41;;;;;;;23.92;12.30;;;;;;;2.94;45.70;103183.50;5049157;28;20445;-76
2022/04/17 05:23:28;;;;;;;22.80;12.95;;;;;;;5.25;41.00;103176.13;5081165;28;20119;-75
2022/04/17 05:26:37;;;;;;;23.20;13.05;;;;;;;7.62;34.99;103175.22;5067874;28;20079;-74
2022/04/17 05:29:41;;;;;;;22.58;12.07;;;;;;;8.49;33.69;103167.16;5064230;28;20229;-75
2022/04/17 05:32:07;;;;;;;27.30;14.02;;;;;;;9.30;31.95;103166.66;5063662;28;20461;-76
2022/04/17 05:34:35;;;;;;;19.42;12.85;;;;;;;10.45;29.03;103159.66;5054349;28;20033;-77
2022/04/17 05:37:41;;;;;;;22.80;13.05;;;;;;;11.54;28.81;103159.09;5047192;28;20029;-74
2022/04/17 05:40:09;;;;;;;22.20;11.85;;;;;;;12.22;26.88;103159.38;5049126;28;20033;-77
2022/04/17 05:43:00;;;;;;;19.67;11.32;;;;;;;12.39;25.88;103149.56;5049115;28;20125;-75
2022/04/17 05:45:26;;;;;;;26.50;11.57;;;;;;;12.10;25.75;103160.38;5081720;28;20232;-78
2022/04/17 05:47:54;;;;;;;20.85;11.43;;;;;;;12.11;25.95;103150.75;5059635;28;20040;-77
2022/04/17 05:50:20;;;;;;;21.83;11.68;;;;;;;12.46;25.69;103158.22;5058492;28;20120;-74
2022/04/17 05:52:49;;;;;;;22.55;11.35;;;;;;;13.25;24.47;103151.09;5042684;28;20048;-77
2022/04/17 05:55:15;;;;;;;18.80;10.55;;;;;;;13.91;23.74;103157.03;5063059;28;20029;-76
2022/04/17 05:57:41;;;;;;;19.25;11.50;;;;;;;13.92;23.20;103154.41;5064354;28;20032;-78
2022/04/17 06:00:08;;;;;;;22.60;11.07;;;;;;;13.80;23.41;103157.22;5076640;28;20029;-78
2022/04/17 06:02:39;;;;;;;21.23;11.57;;;;;;;14.49;22.68;103163.00;5044579;28;20037;-77
2022/04/17 06:05:06;;;;;;;20.42;11.80;;;;;;;14.28;22.94;103157.22;5062251;28;20029;-75
2022/04/17 06:07:32;;;;;;;22.20;12.20;;;;;;;14.93;22.31;103161.19;5060171;28;20410;-76
2022/04/17 06:10:07;;;;;;;18.65;10.98;;;;;;;15.36;22.01;103160.22;5074538;28;20041;-77
2022/04/17 06:12:33;;;;;;;22.45;12.15;;;;;;;15.30;21.99;103163.84;5058342;28;20075;-77
2022/04/17 06:14:59;;;;;;;22.83;11.13;;;;;;;16.48;20.49;103154.63;5044210;28;20052;-76
2022/04/17 06:17:26;;;;;;;21.20;10.75;;;;;;;16.31;21.17;103157.78;5063515;28;20506;-76
2022/04/17 06:20:14;;;;;;;20.15;11.10;;;;;;;16.08;21.25;103160.16;5063025;28;20025;-77
2022/04/17 06:22:41;;;;;;;20.30;13.05;;;;;;;16.73;20.44;103149.50;5015544;28;20060;-76
2022/04/17 06:25:10;;;;;;;23.20;13.65;;;;;;;17.75;19.48;103146.28;5031919;28;20033;-77
2022/04/17 06:27:46;;;;;;;24.85;12.98;;;;;;;16.92;20.35;103151.63;5031447;28;20120;-78
2022/04/17 06:30:14;;;;;;;20.75;12.02;;;;;;;16.90;20.59;103145.50;5048877;28;20033;-80
2022/04/17 06:32:40;;;;;;;21.40;12.40;;;;;;;16.58;20.81;103144.69;5058800;28;20068;-76
2022/04/17 06:35:07;;;;;;;18.80;12.57;;;;;;;17.15;20.65;103146.44;5023814;28;20623;-77
2022/04/17 06:37:57;;;;;;;14.50;10.80;;;;;;;17.31;21.18;103141.53;5026241;28;20037;-78
2022/04/17 06:40:28;;;;;;;16.30;10.80;;;;;;;18.16;19.34;103138.63;5043215;28;20195;-76
2022/04/17 06:42:55;;;;;;;20.77;12.18;;;;;;;18.54;19.63;103133.72;5039629;28;20098;-78
2022/04/17 06:45:22;;;;;;;13.80;9.38;;;;;;;17.79;19.30;103132.03;5042361;28;20637;-76
2022/04/17 06:47:48;;;;;;;15.57;9.85;;;;;;;17.70;19.28;103133.22;5040830;28;20041;-75
2022/04/17 06:50:16;;;;;;;14.27;9.23;;;;;;;17.69;19.56;103141.19;5023151;28;20036;-76
2022/04/17 06:52:41;;;;;;;13.93;9.68;;;;;;;17.31;19.46;103133.59;5054798;28;20044;-76
2022/04/17 06:55:11;;;;;;;15.40;9.30;;;;;;;17.83;18.85;103128.38;5037542;28;20024;-76
2022/04/17 06:57:39;;;;;;;10.48;8.27;;;;;;;17.99;19.57;103126.03;5044264;28;20049;-77
2022/04/17 07:00:07;;;;;;;13.85;9.23;;;;;;;18.25;18.73;103122.44;5039482;28;20476;-78
2022/04/17 07:02:33;;;;;;;20.08;8.38;;;;;;;18.77;18.20;103123.13;5040164;28;20128;-77
2022/04/17 07:04:59;;;;;;;18.20;9.00;;;;;;;18.82;18.35;103121.13;5040113;28;20039;-74
2022/04/17 07:07:24;;;;;;;12.43;8.32;;;;;;;18.69;18.75;103118.09;5038977;28;20044;-76
2022/04/17 07:09:50;;;;;;;11.38;8.52;;;;;;;19.03;17.83;103115.94;5049833;28;20033;-76
2022/04/17 07:12:16;;;;;;;12.13;8.00;;;;;;;18.67;17.97;103117.31;5047960;28;20036;-74
2022/04/17 07:14:42;;;;;;;13.18;7.53;;;;;;;19.35;18.03;103113.75;5033489;28;20037;-76
2022/04/17 07:17:08;;;;;;;12.13;8.30;;;;;;;20.12;16.96;103117.44;5008205;28;20028;-76
2022/04/17 07:19:33;;;;;;;12.57;7.10;;;;;;;19.88;16.87;103114.13;5049377;28;20033;-77
2022/04/17 07:21:59;;;;;;;9.35;7.35;;;;;;;20.56;16.18;103120.81;5031973;28;20037;-77
2022/04/17 07:24:26;;;;;;;13.52;6.32;;;;;;;21.07;16.05;103113.94;5043836;28;20064;-76
2022/04/17 07:26:53;;;;;;;9.60;7.03;;;;;;;20.60;16.07;103114.41;5029143;28;20056;-74
2022/04/17 07:29:22;;;;;;;10.82;7.60;;;;;;;20.59;16.48;103107.38;5050258;28;20045;-77
2022/04/17 07:31:53;;;;;;;14.05;7.35;;;;;;;20.71;16.59;103105.00;5027878;28;20063;-77
2022/04/17 07:34:21;;;;;;;10.02;7.65;;;;;;;21.21;15.97;103105.25;5040333;28;20100;-75
2022/04/17 07:36:47;;;;;;;10.95;7.45;;;;;;;20.52;16.51;103110.31;5045804;28;20041;-77
2022/04/17 07:39:17;;;;;;;10.15;6.97;;;;;;;21.55;16.03;103105.25;5049695;28;20068;-77
2022/04/17 07:41:44;;;;;;;11.70;7.25;;;;;;;21.60;16.03;103107.72;5050041;28;20037;-77
2022/04/17 07:44:13;;;;;;;8.27;6.30;;;;;;;21.48;15.97;103100.34;5034688;28;20041;-76
2022/04/17 07:46:40;;;;;;;14.55;7.30;;;;;;;21.79;15.86;103098.75;5036083;28;20132;-76
2022/04/17 07:49:06;;;;;;;9.32;7.38;;;;;;;21.65;15.65;103102.16;5060135;28;20142;-76
2022/04/17 07:51:37;;;;;;;;;;;;;;;21.19;16.20;103097.34;5066734;28;20036;-76
2022/04/17 07:54:03;;;;;;;13.30;7.07;;;;;;;21.35;15.88;103095.66;5057705;28;20287;-75
2022/04/17 07:56:29;;;;;;;9.25;6.25;;;;;;;20.49;16.78;103083.03;5055731;28;20036;-77
2022/04/17 07:58:54;;;;;;;8.70;6.53;;;;;;;20.42;16.46;103093.09;5040119;28;20686;-76
2022/04/17 08:01:21;;;;;;;8.25;6.22;;;;;;;20.94;16.50;103095.91;5054574;28;20600;-77
2022/04/17 08:03:47;;;;;;;8.65;5.68;;;;;;;21.65;16.47;103087.03;5053558;28;20056;-76
2022/04/17 08:06:16;;;;;;;10.57;5.95;;;;;;;21.98;16.09;103083.53;5057960;28;20020;-77
2022/04/17 08:08:45;;;;;;;10.20;5.93;;;;;;;22.34;15.22;103082.47;5055051;28;20076;-74
2022/04/17 08:11:12;;;;;;;7.53;5.72;;;;;;;23.38;16.23;103088.94;5057659;28;20037;-76
2022/04/17 08:13:39;;;;;;;8.88;6.00;;;;;;;21.98;15.91;103079.06;5056344;28;20048;-76
2022/04/17 08:16:09;;;;;;;7.80;5.10;;;;;;;22.58;15.35;103083.75;5048064;28;20033;-77
2022/04/17 08:18:36;;;;;;;12.25;5.90;;;;;;;22.66;15.03;103074.47;5056347;28;20100;-75
2022/04/17 08:21:04;;;;;;;9.40;5.85;;;;;;;21.63;15.92;103072.94;5058670;28;20033;-78
2022/04/17 08:23:38;;;;;;;9.75;5.18;;;;;;;22.17;15.71;103073.59;5047023;28;20025;-74
2022/04/17 08:26:07;;;;;;;10.65;6.95;;;;;;;22.13;15.57;103073.84;5068966;28;20044;-76
2022/04/17 08:28:33;;;;;;;6.88;5.05;;;;;;;21.67;15.99;103071.84;5036852;28;20068;-78
2022/04/17 08:30:59;;;;;;;6.53;4.88;;;;;;;21.36;15.50;103076.06;5071008;28;20029;-74
2022/04/17 08:33:26;;;;;;;8.80;5.82;;;;;;;20.82;16.27;103075.25;5070744;28;20048;-74
2022/04/17 08:35:59;;;;;;;6.68;5.53;;;;;;;20.45;16.61;103076.16;5070024;28;20045;-74
2022/04/17 08:38:25;;;;;;;8.10;5.55;;;;;;;20.05;17.54;103072.66;5069492;28;20040;-77
2022/04/17 08:40:52;;;;;;;7.93;7.03;;;;;;;21.22;16.59;103059.97;5052957;28;20117;-76
2022/04/17 08:43:21;;;;;;;9.90;6.68;;;;;;;21.33;16.22;103064.72;5052321;28;20048;-75
2022/04/17 08:45:50;;;;;;;10.00;5.65;;;;;;;21.28;16.65;103056.97;5050974;28;20131;-76
2022/04/17 08:48:15;;;;;;;5.45;4.78;;;;;;;20.92;16.12;103055.25;5061866;28;20036;-78
2022/04/17 08:50:47;;;;;;;7.75;4.88;;;;;;;19.47;17.58;103049.56;5032365;28;20098;-76
2022/04/17 08:53:17;;;;;;;9.02;5.13;;;;;;;20.10;17.23;103057.38;5050303;28;20036;-74
2022/04/17 08:55:44;;;;;;;7.00;4.97;;;;;;;20.49;16.45;103046.72;5067074;28;20252;-76
2022/04/17 08:58:10;;;;;;;8.55;5.40;;;;;;;19.82;17.51;103060.47;5049847;28;20058;-77
2022/04/17 09:00:38;;;;;;;8.50;4.82;;;;;;;18.70;18.76;103050.13;5035479;28;20045;-76
2022/04/17 09:03:07;;;;;;;8.23;5.20;;;;;;;18.66;18.62;103046.72;5034201;28;20063;-73
2022/04/17 09:05:34;;;;;;;7.95;5.45;;;;;;;18.27;18.91;103044.75;5049926;28;20064;-77
2022/04/17 09:08:22;;;;;;;6.07;5.43;;;;;;;18.02;20.00;103044.75;5036028;28;20042;-76
2022/04/17 09:10:58;;;;;;;9.52;5.53;;;;;;;16.99;20.71;103035.13;5030521;28;20037;-78
2022/04/17 09:13:32;;;;;;;7.50;4.82;;;;;;;15.67;22.46;103046.09;5055035;28;20044;-75
2022/04/17 09:16:00;;;;;;;5.93;4.65;;;;;;;16.00;21.49;103037.28;5047841;28;20048;-77
2022/04/17 09:18:32;;;;;;;11.32;5.30;;;;;;;15.74;21.79;103034.47;5052070;28;20040;-78
2022/04/17 09:21:01;;;;;;;;;;;;;;;16.10;22.03;103031.72;5063107;28;20132;-78
2022/04/17 09:24:12;;;;;;;6.35;4.35;;;;;;;16.68;20.65;103018.53;5067423;28;20128;-75
2022/04/17 09:26:58;;;;;;;5.78;4.53;;;;;;;15.73;21.52;103022.22;5056382;28;20128;-75
2022/04/17 09:29:46;;;;;;;6.95;3.05;;;;;;;15.36;20.84;103008.25;5059953;28;20047;-77
2022/04/17 09:33:51;;;;;;;8.23;4.45;;;;;;;15.91;21.89;103015.56;5064760;28;20385;-77
2022/04/17 09:36:29;;;;;;;8.07;3.85;;;;;;;15.86;22.16;103013.03;5040669;28;20041;-78
2022/04/17 09:39:14;;;;;;;4.85;3.17;;;;;;;16.27;21.73;102999.59;5077198;28;20045;-76
2022/04/17 09:41:57;;;;;;;6.75;3.67;;;;;;;15.91;21.37;102995.31;5075379;28;20043;-75
2022/04/17 09:44:57;;;;;;;4.25;3.35;;;;;;;15.81;21.00;102988.56;5040534;28;20046;-78
2022/04/17 09:51:20;;;;;;;4.85;2.55;;;;;;;16.63;20.12;102973.78;5062024;28;20094;-77
2022/04/17 09:54:01;;;;;;;4.35;2.80;;;;;;;16.42;19.74;102976.22;5059587;28;20057;-79
2022/04/17 09:56:34;;;;;;;2.22;1.42;;;;;;;16.80;18.68;102960.94;5085927;28;20047;-78
2022/04/17 09:59:31;;;;;;;3.95;1.50;;;;;;;16.47;18.00;102962.03;5044604;28;20048;-79
2022/04/17 10:02:06;;;;;;;6.75;1.88;;;;;;;16.74;18.49;102960.25;5057925;28;20047;-77
2022/04/17 10:04:37;;;;;;;6.35;1.55;;;;;;;16.34;18.26;102951.84;5070580;28;20028;-78
2022/04/17 10:07:08;;;;;;;7.15;2.20;;;;;;;16.72;17.52;102957.66;5064801;28;20045;-78
2022/04/17 10:09:45;;;;;;;2.83;2.00;;;;;;;16.61;17.94;102952.72;5047931;28;20057;-78
2022/04/17 10:12:21;;;;;;;3.08;1.48;;;;;;;16.84;18.11;102937.91;5057579;28;20045;-78
2022/04/17 10:14:49;;;;;;;3.08;1.50;;;;;;;16.06;17.77;102943.03;5061067;28;20041;-80
2022/04/17 10:17:21;;;;;;;2.67;1.17;;;;;;;16.41;19.38;102936.66;5036617;28;20043;-78
2022/04/17 10:22:57;;;;;;;2.30;1.60;;;;;;;16.95;18.04;102926.97;5069017;28;20060;-77
2022/04/17 10:25:24;;;;;;;5.20;1.50;;;;;;;16.91;17.78;102925.34;5068102;28;20067;-78
2022/04/17 10:27:59;;;;;;;2.85;1.45;;;;;;;16.97;17.15;102922.50;4998817;28;20061;-76
2022/04/17 10:31:01;;;;;;;4.07;1.40;;;;;;;16.78;17.81;102927.59;5055777;28;20033;-78
2022/04/17 10:34:11;;;;;;;1.85;0.93;;;;;;;18.01;17.25;102915.19;5051968;28;20131;-77
2022/04/17 10:37:14;;;;;;;2.72;1.88;;;;;;;16.92;17.37;102921.81;5076749;28;20070;-78
2022/04/17 10:39:48;;;;;;;3.08;2.15;;;;;;;16.56;18.16;102916.84;5068244;28;20076;-78
2022/04/17 10:42:15;;;;;;;4.38;1.50;;;;;;;16.58;17.79;102913.22;5073514;28;20773;-77
2022/04/17 10:44:41;;;;;;;5.22;1.67;;;;;;;16.33;17.84;102915.81;5058315;28;20041;-77
2022/04/17 10:47:20;;;;;;;3.05;1.33;;;;;;;16.71;18.63;102905.78;5048157;28;20036;-77
2022/04/17 10:49:57;;;;;;;4.80;1.85;;;;;;;17.00;19.19;102909.19;5071387;28;20049;-78
2022/04/17 10:52:31;;;;;;;3.42;1.77;;;;;;;17.52;18.44;102917.06;5035413;28;20060;-77
2022/04/17 10:55:18;;;;;;;4.75;2.03;;;;;;;17.51;18.01;102912.69;5063147;28;20040;-77
2022/04/17 10:57:50;;;;;;;2.83;1.85;;;;;;;17.15;18.44;102907.78;5075755;28;20040;-78
2022/04/17 11:00:27;;;;;;;3.60;1.40;;;;;;;17.05;18.60;102906.41;5056988;28;20025;-76
2022/04/17 11:02:53;;;;;;;2.85;1.83;;;;;;;16.06;19.25;102898.22;5041215;28;20142;-76
2022/04/17 11:09:10;;;;;;;5.72;1.85;;;;;;;16.72;18.31;102889.00;5028645;28;20303;-77
2022/04/17 11:11:45;;;;;;;5.45;2.42;;;;;;;17.01;18.92;102889.81;5062799;28;20102;-78
2022/04/17 11:14:23;;;;;;;3.17;2.42;;;;;;;16.65;18.44;102887.50;5040315;28;20060;-77
2022/04/17 11:16:56;;;;;;;4.30;1.98;;;;;;;16.58;18.65;102885.97;5061380;28;20057;-77
2022/04/17 11:19:25;;;;;;;2.67;1.90;;;;;;;16.61;19.11;102894.63;5057769;28;20093;-76
2022/04/17 11:22:02;;;;;;;4.72;1.52;;;;;;;16.40;19.13;102888.31;5040032;28;20097;-76
2022/04/17 11:24:56;;;;;;;2.58;1.80;;;;;;;16.31;19.62;102885.09;5060868;28;20029;-75
2022/04/17 11:27:51;;;;;;;4.78;1.48;;;;;;;16.34;19.09;102885.88;5049217;28;20041;-76
2022/04/17 11:30:17;;;;;;;2.83;1.33;;;;;;;16.71;18.74;102882.00;5073039;28;20045;-78
2022/04/17 11:32:42;;;;;;;2.15;1.63;;;;;;;16.44;18.56;102882.91;5058245;28;20048;-76
2022/04/17 11:35:31;;;;;;;4.47;1.70;;;;;;;16.44;19.80;102875.00;5075370;28;20032;-76
2022/04/17 11:38:06;;;;;;;3.05;1.60;;;;;;;17.24;20.45;102876.59;5050723;28;20055;-79
2022/04/17 11:40:35;;;;;;;3.63;1.67;;;;;;;18.29;18.66;102877.91;5082157;28;20035;-78
2022/04/17 11:43:12;;;;;;;2.95;1.80;;;;;;;17.79;17.30;102868.41;5045767;28;20052;-77
2022/04/17 11:45:40;;;;;;;3.70;1.63;;;;;;;17.86;18.15;102866.38;5023974;28;20040;-76
2022/04/17 11:48:12;;;;;;;2.47;1.40;;;;;;;17.12;18.41;102868.28;5074841;28;20040;-78
2022/04/17 11:50:40;;;;;;;3.63;1.45;;;;;;;16.60;17.79;102860.41;5041060;28;20120;-80
2022/04/17 11:53:16;;;;;;;2.78;1.35;;;;;;;17.13;18.75;102857.63;5040110;28;20263;-77
2022/04/17 11:55:44;;;;;;;2.45;1.20;;;;;;;17.63;18.47;102857.56;5041154;28;20041;-80
2022/04/17 11:58:23;;;;;;;3.53;1.70;;;;;;;17.63;18.18;102849.63;5065133;28;20655;-79
2022/04/17 12:01:05;;;;;;;3.42;1.20;;;;;;;17.09;19.07;102850.78;5047822;28;20052;-79
2022/04/17 12:03:49;;;;;;;3.13;1.15;;;;;;;17.71;20.05;102843.19;5081807;28;20070;-79
2022/04/17 12:06:41;;;;;;;3.13;1.50;;;;;;;17.22;18.88;102844.13;5045620;28;20051;-78
2022/04/17 12:09:07;;;;;;;4.10;3.15;;;;;;;16.56;19.55;102835.00;5047293;28;20052;-79
2022/04/17 12:11:39;;;;;;;2.92;1.52;;;;;;;16.23;20.96;102824.66;5036980;28;20060;-77